sensor_id;sensor_type;location;lat;lon;timestamp;P1;durP1;ratioP1;P2;durP2;ratioP2
74849;SDS011;63397;47.480;19.238;2022-11-14T00:01:44;231.40;;;25.60;;
74849;SDS011;63397;47.480;19.238;2022-11-14T00:05:05;211.88;;;23.90;;
74849;SDS011;63397;47.480;19.238;2022-11-14T00:08:27;243.40;;;24.45;;
74849;SDS011;63397;47.480;19.238;2022-11-14T00:11:48;217.55;;;23.58;;
74849;SDS011;63397;47.480;19.238;2022-11-14T00:15:09;234.83;;;23.67;;
74849;SDS011;63397;47.480;19.238;2022-11-14T00:18:29;221.95;;;24.98;;
74849;SDS011;63397;47.480;19.238;2022-11-14T00:21:51;188.82;;;23.00;;
74849;SDS011;63397;47.480;19.238;2022-11-14T00:25:13;201.63;;;24.10;;
74849;SDS011;63397;47.480;19.238;2022-11-14T00:28:34;228.10;;;23.48;;
74849;SDS011;63397;47.480;19.238;2022-11-14T00:31:54;243.20;;;26.30;;
74849;SDS011;63397;47.480;19.238;2022-11-14T00:35:15;232.63;;;24.50;;
74849;SDS011;63397;47.480;19.238;2022-11-14T00:38:36;202.75;;;24.13;;
74849;SDS011;63397;47.480;19.238;2022-11-14T00:41:56;210.23;;;24.83;;
74849;SDS011;63397;47.480;19.238;2022-11-14T00:45:17;214.10;;;24.70;;
74849;SDS011;63397;47.480;19.238;2022-11-14T00:48:38;187.43;;;24.70;;
74849;SDS011;63397;47.480;19.238;2022-11-14T00:51:59;199.25;;;23.70;;
74849;SDS011;63397;47.480;19.238;2022-11-14T00:55:19;193.70;;;23.65;;
74849;SDS011;63397;47.480;19.238;2022-11-14T00:58:40;195.98;;;22.63;;
74849;SDS011;63397;47.480;19.238;2022-11-14T01:02:00;178.35;;;22.83;;
74849;SDS011;63397;47.480;19.238;2022-11-14T01:05:22;207.00;;;23.40;;
74849;SDS011;63397;47.480;19.238;2022-11-14T01:08:43;194.13;;;22.85;;
74849;SDS011;63397;47.480;19.238;2022-11-14T01:12:04;193.85;;;21.55;;
74849;SDS011;63397;47.480;19.238;2022-11-14T01:15:24;165.05;;;21.92;;
74849;SDS011;63397;47.480;19.238;2022-11-14T01:18:45;188.60;;;23.15;;
74849;SDS011;63397;47.480;19.238;2022-11-14T01:22:06;166.57;;;21.47;;
74849;SDS011;63397;47.480;19.238;2022-11-14T01:25:26;179.63;;;23.08;;
74849;SDS011;63397;47.480;19.238;2022-11-14T01:28:47;145.50;;;22.45;;
74849;SDS011;63397;47.480;19.238;2022-11-14T01:32:07;154.98;;;20.73;;
74849;SDS011;63397;47.480;19.238;2022-11-14T01:35:29;141.18;;;21.27;;
74849;SDS011;63397;47.480;19.238;2022-11-14T01:38:51;155.17;;;23.40;;
74849;SDS011;63397;47.480;19.238;2022-11-14T01:42:11;170.30;;;21.75;;
74849;SDS011;63397;47.480;19.238;2022-11-14T01:52:35;139.82;;;21.38;;
74849;SDS011;63397;47.480;19.238;2022-11-14T01:55:57;148.07;;;21.67;;
74849;SDS011;63397;47.480;19.238;2022-11-14T01:59:23;163.90;;;21.83;;
74849;SDS011;63397;47.480;19.238;2022-11-14T02:02:45;206.45;;;21.83;;
74849;SDS011;63397;47.480;19.238;2022-11-14T02:06:06;178.45;;;23.02;;
74849;SDS011;63397;47.480;19.238;2022-11-14T02:09:27;180.40;;;23.55;;
74849;SDS011;63397;47.480;19.238;2022-11-14T02:12:50;210.07;;;24.83;;
74849;SDS011;63397;47.480;19.238;2022-11-14T02:16:11;193.32;;;23.88;;
74849;SDS011;63397;47.480;19.238;2022-11-14T02:23:05;186.07;;;25.35;;
74849;SDS011;63397;47.480;19.238;2022-11-14T02:26:25;191.93;;;24.30;;
74849;SDS011;63397;47.480;19.238;2022-11-14T02:29:46;136.67;;;22.80;;
74849;SDS011;63397;47.480;19.238;2022-11-14T02:33:07;153.98;;;22.85;;
74849;SDS011;63397;47.480;19.238;2022-11-14T02:36:30;121.10;;;20.08;;
74849;SDS011;63397;47.480;19.238;2022-11-14T02:39:52;130.05;;;22.52;;
74849;SDS011;63397;47.480;19.238;2022-11-14T02:43:13;138.32;;;22.05;;
74849;SDS011;63397;47.480;19.238;2022-11-14T02:46:34;176.30;;;23.97;;
74849;SDS011;63397;47.480;19.238;2022-11-14T02:49:54;136.40;;;22.42;;
74849;SDS011;63397;47.480;19.238;2022-11-14T02:53:15;131.38;;;21.55;;
74849;SDS011;63397;47.480;19.238;2022-11-14T02:56:35;127.15;;;20.25;;
74849;SDS011;63397;47.480;19.238;2022-11-14T02:59:56;141.23;;;21.70;;
74849;SDS011;63397;47.480;19.238;2022-11-14T03:03:17;131.27;;;21.33;;
74849;SDS011;63397;47.480;19.238;2022-11-14T03:06:38;136.68;;;19.92;;
74849;SDS011;63397;47.480;19.238;2022-11-14T03:09:58;146.07;;;21.75;;
74849;SDS011;63397;47.480;19.238;2022-11-14T03:13:19;144.13;;;21.10;;
74849;SDS011;63397;47.480;19.238;2022-11-14T03:16:39;136.20;;;20.20;;
74849;SDS011;63397;47.480;19.238;2022-11-14T03:20:01;158.47;;;22.07;;
74849;SDS011;63397;47.480;19.238;2022-11-14T03:23:21;137.82;;;20.58;;
74849;SDS011;63397;47.480;19.238;2022-11-14T03:26:42;146.50;;;21.92;;
74849;SDS011;63397;47.480;19.238;2022-11-14T03:30:03;185.60;;;23.65;;
74849;SDS011;63397;47.480;19.238;2022-11-14T03:33:25;139.55;;;23.13;;
74849;SDS011;63397;47.480;19.238;2022-11-14T03:36:45;159.87;;;21.33;;
74849;SDS011;63397;47.480;19.238;2022-11-14T03:40:06;142.20;;;23.00;;
74849;SDS011;63397;47.480;19.238;2022-11-14T03:43:29;131.10;;;22.17;;
74849;SDS011;63397;47.480;19.238;2022-11-14T03:46:50;135.45;;;20.48;;
74849;SDS011;63397;47.480;19.238;2022-11-14T03:50:11;122.90;;;20.83;;
74849;SDS011;63397;47.480;19.238;2022-11-14T03:53:32;146.30;;;20.97;;
74849;SDS011;63397;47.480;19.238;2022-11-14T03:56:53;123.00;;;19.15;;
74849;SDS011;63397;47.480;19.238;2022-11-14T04:00:14;125.68;;;21.58;;
74849;SDS011;63397;47.480;19.238;2022-11-14T04:03:34;134.35;;;22.77;;
74849;SDS011;63397;47.480;19.238;2022-11-14T04:06:55;118.10;;;21.60;;
74849;SDS011;63397;47.480;19.238;2022-11-14T04:10:16;127.30;;;20.93;;
74849;SDS011;63397;47.480;19.238;2022-11-14T04:13:38;151.77;;;22.45;;
74849;SDS011;63397;47.480;19.238;2022-11-14T04:16:58;160.35;;;23.52;;
74849;SDS011;63397;47.480;19.238;2022-11-14T04:20:18;127.60;;;21.35;;
74849;SDS011;63397;47.480;19.238;2022-11-14T04:23:39;109.68;;;20.88;;
74849;SDS011;63397;47.480;19.238;2022-11-14T04:27:00;115.37;;;22.50;;
74849;SDS011;63397;47.480;19.238;2022-11-14T04:30:21;115.55;;;21.88;;
74849;SDS011;63397;47.480;19.238;2022-11-14T04:33:41;113.75;;;20.40;;
74849;SDS011;63397;47.480;19.238;2022-11-14T04:37:02;113.05;;;21.73;;
74849;SDS011;63397;47.480;19.238;2022-11-14T04:40:23;107.75;;;20.75;;
74849;SDS011;63397;47.480;19.238;2022-11-14T04:43:43;99.47;;;19.47;;
74849;SDS011;63397;47.480;19.238;2022-11-14T04:47:10;98.07;;;20.88;;
74849;SDS011;63397;47.480;19.238;2022-11-14T04:50:31;99.60;;;21.58;;
74849;SDS011;63397;47.480;19.238;2022-11-14T04:53:52;100.53;;;20.40;;
74849;SDS011;63397;47.480;19.238;2022-11-14T04:57:12;87.47;;;19.98;;
74849;SDS011;63397;47.480;19.238;2022-11-14T05:00:33;93.93;;;19.67;;
74849;SDS011;63397;47.480;19.238;2022-11-14T05:03:54;109.88;;;21.85;;
74849;SDS011;63397;47.480;19.238;2022-11-14T05:07:15;100.30;;;20.92;;
74849;SDS011;63397;47.480;19.238;2022-11-14T05:10:36;88.93;;;19.90;;
74849;SDS011;63397;47.480;19.238;2022-11-14T05:13:57;87.55;;;18.88;;
74849;SDS011;63397;47.480;19.238;2022-11-14T05:17:18;99.23;;;22.20;;
74849;SDS011;63397;47.480;19.238;2022-11-14T05:20:38;118.22;;;22.73;;
74849;SDS011;63397;47.480;19.238;2022-11-14T05:23:59;109.28;;;21.42;;
74849;SDS011;63397;47.480;19.238;2022-11-14T05:27:19;117.72;;;21.95;;
74849;SDS011;63397;47.480;19.238;2022-11-14T05:30:40;127.97;;;23.50;;
74849;SDS011;63397;47.480;19.238;2022-11-14T05:34:01;108.83;;;21.87;;
74849;SDS011;63397;47.480;19.238;2022-11-14T05:37:22;108.93;;;21.90;;
74849;SDS011;63397;47.480;19.238;2022-11-14T05:40:42;105.25;;;21.65;;
74849;SDS011;63397;47.480;19.238;2022-11-14T05:44:03;96.57;;;19.75;;
74849;SDS011;63397;47.480;19.238;2022-11-14T05:47:24;92.22;;;19.42;;
74849;SDS011;63397;47.480;19.238;2022-11-14T05:50:45;71.07;;;17.73;;
74849;SDS011;63397;47.480;19.238;2022-11-14T05:54:06;60.53;;;16.90;;
74849;SDS011;63397;47.480;19.238;2022-11-14T05:57:27;72.57;;;18.27;;
74849;SDS011;63397;47.480;19.238;2022-11-14T06:00:47;86.85;;;19.13;;
74849;SDS011;63397;47.480;19.238;2022-11-14T06:04:13;83.20;;;18.92;;
74849;SDS011;63397;47.480;19.238;2022-11-14T06:07:34;75.00;;;18.70;;
74849;SDS011;63397;47.480;19.238;2022-11-14T06:11:00;64.68;;;17.35;;
74849;SDS011;63397;47.480;19.238;2022-11-14T06:14:21;64.18;;;16.83;;
74849;SDS011;63397;47.480;19.238;2022-11-14T06:17:41;64.68;;;17.05;;
74849;SDS011;63397;47.480;19.238;2022-11-14T06:21:10;63.22;;;17.60;;
74849;SDS011;63397;47.480;19.238;2022-11-14T06:24:31;71.30;;;18.40;;
74849;SDS011;63397;47.480;19.238;2022-11-14T06:27:52;75.65;;;18.02;;
74849;SDS011;63397;47.480;19.238;2022-11-14T06:31:12;84.18;;;20.90;;
74849;SDS011;63397;47.480;19.238;2022-11-14T06:34:33;81.40;;;19.13;;
74849;SDS011;63397;47.480;19.238;2022-11-14T06:37:54;83.18;;;19.38;;
74849;SDS011;63397;47.480;19.238;2022-11-14T06:41:17;83.30;;;19.83;;
74849;SDS011;63397;47.480;19.238;2022-11-14T06:44:41;81.68;;;20.30;;
74849;SDS011;63397;47.480;19.238;2022-11-14T06:48:02;77.07;;;19.63;;
74849;SDS011;63397;47.480;19.238;2022-11-14T06:51:43;72.20;;;19.75;;
74849;SDS011;63397;47.480;19.238;2022-11-14T06:55:05;77.30;;;20.60;;
74849;SDS011;63397;47.480;19.238;2022-11-14T06:58:30;73.10;;;20.00;;
74849;SDS011;63397;47.480;19.238;2022-11-14T07:01:51;81.65;;;19.13;;
74849;SDS011;63397;47.480;19.238;2022-11-14T07:05:13;77.13;;;20.58;;
74849;SDS011;63397;47.480;19.238;2022-11-14T07:08:39;65.22;;;19.13;;
74849;SDS011;63397;47.480;19.238;2022-11-14T07:12:01;50.35;;;16.23;;
74849;SDS011;63397;47.480;19.238;2022-11-14T07:15:23;43.43;;;15.07;;
74849;SDS011;63397;47.480;19.238;2022-11-14T07:18:44;44.22;;;15.93;;
74849;SDS011;63397;47.480;19.238;2022-11-14T07:22:07;44.47;;;16.77;;
74849;SDS011;63397;47.480;19.238;2022-11-14T07:25:28;42.80;;;14.60;;
74849;SDS011;63397;47.480;19.238;2022-11-14T07:28:51;46.28;;;17.55;;
74849;SDS011;63397;47.480;19.238;2022-11-14T07:32:20;46.20;;;16.10;;
74849;SDS011;63397;47.480;19.238;2022-11-14T07:35:41;53.13;;;15.73;;
74849;SDS011;63397;47.480;19.238;2022-11-14T07:39:03;39.20;;;15.40;;
74849;SDS011;63397;47.480;19.238;2022-11-14T07:42:29;42.53;;;15.70;;
74849;SDS011;63397;47.480;19.238;2022-11-14T07:45:50;38.63;;;14.80;;
74849;SDS011;63397;47.480;19.238;2022-11-14T07:49:13;47.73;;;15.60;;
74849;SDS011;63397;47.480;19.238;2022-11-14T07:52:42;44.28;;;15.32;;
74849;SDS011;63397;47.480;19.238;2022-11-14T07:56:04;45.05;;;15.85;;
74849;SDS011;63397;47.480;19.238;2022-11-14T07:59:29;44.13;;;16.80;;
74849;SDS011;63397;47.480;19.238;2022-11-14T08:02:59;42.55;;;15.05;;
74849;SDS011;63397;47.480;19.238;2022-11-14T08:06:20;37.67;;;14.67;;
74849;SDS011;63397;47.480;19.238;2022-11-14T08:09:41;40.28;;;14.90;;
74849;SDS011;63397;47.480;19.238;2022-11-14T08:13:05;46.97;;;15.80;;
74849;SDS011;63397;47.480;19.238;2022-11-14T08:16:48;41.92;;;16.45;;
74849;SDS011;63397;47.480;19.238;2022-11-14T08:20:09;43.33;;;16.88;;
74849;SDS011;63397;47.480;19.238;2022-11-14T08:23:31;49.53;;;18.30;;
74849;SDS011;63397;47.480;19.238;2022-11-14T08:26:52;41.85;;;16.80;;
74849;SDS011;63397;47.480;19.238;2022-11-14T08:30:13;37.55;;;16.60;;
74849;SDS011;63397;47.480;19.238;2022-11-14T08:33:34;41.58;;;15.68;;
74849;SDS011;63397;47.480;19.238;2022-11-14T08:37:02;40.58;;;15.95;;
74849;SDS011;63397;47.480;19.238;2022-11-14T08:44:50;38.33;;;15.82;;
74849;SDS011;63397;47.480;19.238;2022-11-14T08:48:14;35.78;;;15.45;;
74849;SDS011;63397;47.480;19.238;2022-11-14T08:51:35;43.33;;;16.55;;
74849;SDS011;63397;47.480;19.238;2022-11-14T08:54:57;45.05;;;17.38;;
74849;SDS011;63397;47.480;19.238;2022-11-14T08:58:27;37.33;;;16.07;;
74849;SDS011;63397;47.480;19.238;2022-11-14T09:02:02;39.45;;;16.25;;
74849;SDS011;63397;47.480;19.238;2022-11-14T09:05:29;38.50;;;15.98;;
74849;SDS011;63397;47.480;19.238;2022-11-14T09:08:56;36.78;;;15.90;;
74849;SDS011;63397;47.480;19.238;2022-11-14T09:12:19;39.72;;;16.88;;
74849;SDS011;63397;47.480;19.238;2022-11-14T09:15:42;39.67;;;15.13;;
74849;SDS011;63397;47.480;19.238;2022-11-14T09:19:03;35.50;;;16.02;;
74849;SDS011;63397;47.480;19.238;2022-11-14T09:22:26;35.45;;;15.32;;
74849;SDS011;63397;47.480;19.238;2022-11-14T09:25:47;34.72;;;16.60;;
74849;SDS011;63397;47.480;19.238;2022-11-14T09:29:11;34.75;;;14.00;;
74849;SDS011;63397;47.480;19.238;2022-11-14T09:32:32;35.53;;;14.80;;
74849;SDS011;63397;47.480;19.238;2022-11-14T09:35:57;34.28;;;15.25;;
74849;SDS011;63397;47.480;19.238;2022-11-14T09:39:19;34.40;;;14.68;;
74849;SDS011;63397;47.480;19.238;2022-11-14T09:46:55;28.02;;;12.20;;
74849;SDS011;63397;47.480;19.238;2022-11-14T09:50:21;33.97;;;14.90;;
74849;SDS011;63397;47.480;19.238;2022-11-14T09:53:47;28.40;;;12.27;;
74849;SDS011;63397;47.480;19.238;2022-11-14T09:57:15;27.25;;;12.25;;
74849;SDS011;63397;47.480;19.238;2022-11-14T10:00:53;26.45;;;12.00;;
74849;SDS011;63397;47.480;19.238;2022-11-14T10:11:12;23.10;;;11.20;;
74849;SDS011;63397;47.480;19.238;2022-11-14T10:15:12;23.52;;;10.85;;
74849;SDS011;63397;47.480;19.238;2022-11-14T10:25:26;26.23;;;11.23;;
74849;SDS011;63397;47.480;19.238;2022-11-14T10:36:09;25.02;;;11.32;;
74849;SDS011;63397;47.480;19.238;2022-11-14T10:42:57;27.70;;;11.50;;
74849;SDS011;63397;47.480;19.238;2022-11-14T10:46:36;24.98;;;10.90;;
74849;SDS011;63397;47.480;19.238;2022-11-14T10:50:03;22.95;;;10.95;;
74849;SDS011;63397;47.480;19.238;2022-11-14T10:53:41;25.58;;;11.07;;
74849;SDS011;63397;47.480;19.238;2022-11-14T10:57:15;22.17;;;10.95;;
74849;SDS011;63397;47.480;19.238;2022-11-14T11:00:40;22.90;;;10.50;;
74849;SDS011;63397;47.480;19.238;2022-11-14T11:07:32;21.77;;;9.95;;
74849;SDS011;63397;47.480;19.238;2022-11-14T11:11:56;22.05;;;9.98;;
74849;SDS011;63397;47.480;19.238;2022-11-14T11:15:19;23.95;;;10.55;;
74849;SDS011;63397;47.480;19.238;2022-11-14T11:18:41;20.17;;;9.73;;
74849;SDS011;63397;47.480;19.238;2022-11-14T11:22:02;21.50;;;9.35;;
74849;SDS011;63397;47.480;19.238;2022-11-14T11:25:25;20.15;;;10.48;;
74849;SDS011;63397;47.480;19.238;2022-11-14T11:32:26;21.48;;;9.13;;
74849;SDS011;63397;47.480;19.238;2022-11-14T11:35:52;18.97;;;8.30;;
74849;SDS011;63397;47.480;19.238;2022-11-14T11:39:19;17.90;;;8.65;;
74849;SDS011;63397;47.480;19.238;2022-11-14T11:42:55;20.75;;;9.07;;
74849;SDS011;63397;47.480;19.238;2022-11-14T11:46:43;18.58;;;8.35;;
74849;SDS011;63397;47.480;19.238;2022-11-14T11:55:43;15.73;;;7.20;;
74849;SDS011;63397;47.480;19.238;2022-11-14T12:02:43;17.00;;;8.43;;
74849;SDS011;63397;47.480;19.238;2022-11-14T12:07:37;16.70;;;7.80;;
74849;SDS011;63397;47.480;19.238;2022-11-14T12:11:05;18.50;;;8.43;;
74849;SDS011;63397;47.480;19.238;2022-11-14T12:32:27;17.33;;;7.10;;
74849;SDS011;63397;47.480;19.238;2022-11-14T12:35:52;26.00;;;11.25;;
74849;SDS011;63397;47.480;19.238;2022-11-14T12:39:25;24.60;;;11.68;;
74849;SDS011;63397;47.480;19.238;2022-11-14T12:42:47;25.30;;;11.02;;
74849;SDS011;63397;47.480;19.238;2022-11-14T12:46:08;26.25;;;12.10;;
74849;SDS011;63397;47.480;19.238;2022-11-14T12:52:56;23.73;;;9.90;;
74849;SDS011;63397;47.480;19.238;2022-11-14T13:00:37;17.50;;;7.68;;
74849;SDS011;63397;47.480;19.238;2022-11-14T13:04:17;20.05;;;8.32;;
74849;SDS011;63397;47.480;19.238;2022-11-14T13:15:29;19.67;;;9.23;;
74849;SDS011;63397;47.480;19.238;2022-11-14T13:22:50;20.60;;;9.60;;
74849;SDS011;63397;47.480;19.238;2022-11-14T13:32:57;25.02;;;10.68;;
74849;SDS011;63397;47.480;19.238;2022-11-14T13:43:21;17.63;;;7.27;;
74849;SDS011;63397;47.480;19.238;2022-11-14T13:50:13;14.73;;;6.82;;
74849;SDS011;63397;47.480;19.238;2022-11-14T13:53:35;17.35;;;7.53;;
74849;SDS011;63397;47.480;19.238;2022-11-14T14:04:39;18.05;;;7.63;;
74849;SDS011;63397;47.480;19.238;2022-11-14T14:22:10;19.25;;;8.55;;
74849;SDS011;63397;47.480;19.238;2022-11-14T14:25:47;18.27;;;8.63;;
74849;SDS011;63397;47.480;19.238;2022-11-14T14:32:39;20.98;;;9.77;;
74849;SDS011;63397;47.480;19.238;2022-11-14T14:36:00;19.07;;;8.43;;
74849;SDS011;63397;47.480;19.238;2022-11-14T14:39:22;18.55;;;8.80;;
74849;SDS011;63397;47.480;19.238;2022-11-14T14:42:46;19.60;;;8.13;;
74849;SDS011;63397;47.480;19.238;2022-11-14T14:46:08;22.08;;;9.68;;
74849;SDS011;63397;47.480;19.238;2022-11-14T14:49:31;21.20;;;9.20;;
74849;SDS011;63397;47.480;19.238;2022-11-14T14:52:55;21.93;;;9.33;;
74849;SDS011;63397;47.480;19.238;2022-11-14T14:56:17;22.48;;;10.70;;
74849;SDS011;63397;47.480;19.238;2022-11-14T14:59:39;25.40;;;12.07;;
74849;SDS011;63397;47.480;19.238;2022-11-14T15:03:02;25.45;;;11.75;;
74849;SDS011;63397;47.480;19.238;2022-11-14T15:06:33;30.23;;;12.80;;
74849;SDS011;63397;47.480;19.238;2022-11-14T15:09:55;30.53;;;12.30;;
74849;SDS011;63397;47.480;19.238;2022-11-14T15:13:16;28.90;;;11.27;;
74849;SDS011;63397;47.480;19.238;2022-11-14T15:16:38;25.65;;;11.50;;
74849;SDS011;63397;47.480;19.238;2022-11-14T15:19:59;31.05;;;12.43;;
74849;SDS011;63397;47.480;19.238;2022-11-14T15:23:20;27.02;;;11.50;;
74849;SDS011;63397;47.480;19.238;2022-11-14T15:26:44;27.87;;;12.43;;
74849;SDS011;63397;47.480;19.238;2022-11-14T15:30:06;31.58;;;13.25;;
74849;SDS011;63397;47.480;19.238;2022-11-14T15:33:38;38.28;;;15.52;;
74849;SDS011;63397;47.480;19.238;2022-11-14T15:40:38;53.22;;;20.42;;
74849;SDS011;63397;47.480;19.238;2022-11-14T15:43:59;55.40;;;21.47;;
74849;SDS011;63397;47.480;19.238;2022-11-14T15:47:29;56.67;;;21.52;;
74849;SDS011;63397;47.480;19.238;2022-11-14T15:50:50;63.40;;;22.77;;
74849;SDS011;63397;47.480;19.238;2022-11-14T15:54:19;56.05;;;22.00;;
74849;SDS011;63397;47.480;19.238;2022-11-14T15:57:40;62.45;;;23.50;;
74849;SDS011;63397;47.480;19.238;2022-11-14T16:01:01;57.53;;;21.77;;
74849;SDS011;63397;47.480;19.238;2022-11-14T16:04:23;58.50;;;21.80;;
74849;SDS011;63397;47.480;19.238;2022-11-14T16:07:45;56.78;;;23.52;;
74849;SDS011;63397;47.480;19.238;2022-11-14T16:11:06;54.10;;;22.38;;
74849;SDS011;63397;47.480;19.238;2022-11-14T16:14:28;56.58;;;22.65;;
74849;SDS011;63397;47.480;19.238;2022-11-14T16:17:48;64.50;;;25.00;;
74849;SDS011;63397;47.480;19.238;2022-11-14T16:21:10;66.38;;;25.40;;
74849;SDS011;63397;47.480;19.238;2022-11-14T16:24:32;55.58;;;21.38;;
74849;SDS011;63397;47.480;19.238;2022-11-14T16:27:54;53.13;;;20.15;;
74849;SDS011;63397;47.480;19.238;2022-11-14T16:31:15;45.75;;;17.65;;
74849;SDS011;63397;47.480;19.238;2022-11-14T16:34:35;44.20;;;17.87;;
74849;SDS011;63397;47.480;19.238;2022-11-14T16:37:56;47.88;;;18.80;;
74849;SDS011;63397;47.480;19.238;2022-11-14T16:41:16;50.70;;;19.55;;
74849;SDS011;63397;47.480;19.238;2022-11-14T16:44:38;47.70;;;18.80;;
74849;SDS011;63397;47.480;19.238;2022-11-14T16:48:05;44.45;;;18.75;;
74849;SDS011;63397;47.480;19.238;2022-11-14T16:51:26;50.60;;;19.60;;
74849;SDS011;63397;47.480;19.238;2022-11-14T16:55:07;52.30;;;20.08;;
74849;SDS011;63397;47.480;19.238;2022-11-14T16:58:29;51.95;;;21.40;;
74849;SDS011;63397;47.480;19.238;2022-11-14T17:01:49;55.22;;;21.52;;
74849;SDS011;63397;47.480;19.238;2022-11-14T17:05:11;56.53;;;22.23;;
74849;SDS011;63397;47.480;19.238;2022-11-14T17:08:33;65.17;;;22.80;;
74849;SDS011;63397;47.480;19.238;2022-11-14T17:11:53;74.32;;;25.52;;
74849;SDS011;63397;47.480;19.238;2022-11-14T17:15:14;66.43;;;25.08;;
74849;SDS011;63397;47.480;19.238;2022-11-14T17:18:36;69.95;;;24.50;;
74849;SDS011;63397;47.480;19.238;2022-11-14T17:21:58;58.50;;;23.63;;
74849;SDS011;63397;47.480;19.238;2022-11-14T17:25:19;65.17;;;25.43;;
74849;SDS011;63397;47.480;19.238;2022-11-14T17:28:40;70.07;;;25.80;;
74849;SDS011;63397;47.480;19.238;2022-11-14T17:32:03;63.92;;;25.25;;
74849;SDS011;63397;47.480;19.238;2022-11-14T17:35:24;62.25;;;24.17;;
74849;SDS011;63397;47.480;19.238;2022-11-14T17:38:45;62.80;;;24.75;;
74849;SDS011;63397;47.480;19.238;2022-11-14T17:42:06;67.70;;;24.43;;
74849;SDS011;63397;47.480;19.238;2022-11-14T17:45:26;67.25;;;22.45;;
74849;SDS011;63397;47.480;19.238;2022-11-14T17:48:47;62.13;;;23.88;;
74849;SDS011;63397;47.480;19.238;2022-11-14T17:52:08;72.72;;;26.42;;
74849;SDS011;63397;47.480;19.238;2022-11-14T17:55:29;68.13;;;24.77;;
74849;SDS011;63397;47.480;19.238;2022-11-14T17:58:51;65.27;;;24.30;;
74849;SDS011;63397;47.480;19.238;2022-11-14T18:02:12;69.57;;;25.35;;
74849;SDS011;63397;47.480;19.238;2022-11-14T18:05:33;68.93;;;26.55;;
74849;SDS011;63397;47.480;19.238;2022-11-14T18:08:54;77.82;;;26.95;;
74849;SDS011;63397;47.480;19.238;2022-11-14T18:12:15;73.35;;;24.83;;
74849;SDS011;63397;47.480;19.238;2022-11-14T18:15:36;71.80;;;24.67;;
74849;SDS011;63397;47.480;19.238;2022-11-14T18:18:58;67.28;;;22.02;;
74849;SDS011;63397;47.480;19.238;2022-11-14T18:22:18;60.53;;;21.65;;
74849;SDS011;63397;47.480;19.238;2022-11-14T18:25:39;60.58;;;20.67;;
74849;SDS011;63397;47.480;19.238;2022-11-14T18:29:00;66.70;;;21.58;;
74849;SDS011;63397;47.480;19.238;2022-11-14T18:32:24;72.80;;;24.67;;
74849;SDS011;63397;47.480;19.238;2022-11-14T18:35:53;78.20;;;23.52;;
74849;SDS011;63397;47.480;19.238;2022-11-14T18:39:13;76.15;;;24.60;;
74849;SDS011;63397;47.480;19.238;2022-11-14T18:42:34;76.18;;;25.08;;
74849;SDS011;63397;47.480;19.238;2022-11-14T18:45:55;68.30;;;23.00;;
74849;SDS011;63397;47.480;19.238;2022-11-14T18:49:22;70.80;;;21.73;;
74849;SDS011;63397;47.480;19.238;2022-11-14T18:52:45;74.57;;;22.77;;
74849;SDS011;63397;47.480;19.238;2022-11-14T18:56:09;64.95;;;22.17;;
74849;SDS011;63397;47.480;19.238;2022-11-14T18:59:31;103.28;;;18.73;;
74849;SDS011;63397;47.480;19.238;2022-11-14T19:02:52;54.85;;;19.45;;
74849;SDS011;63397;47.480;19.238;2022-11-14T19:06:14;57.50;;;19.83;;
74849;SDS011;63397;47.480;19.238;2022-11-14T19:09:35;52.70;;;19.67;;
74849;SDS011;63397;47.480;19.238;2022-11-14T19:12:56;53.92;;;18.95;;
74849;SDS011;63397;47.480;19.238;2022-11-14T19:16:17;55.83;;;21.33;;
74849;SDS011;63397;47.480;19.238;2022-11-14T19:19:37;59.65;;;21.17;;
74849;SDS011;63397;47.480;19.238;2022-11-14T19:22:58;56.50;;;20.40;;
74849;SDS011;63397;47.480;19.238;2022-11-14T19:26:20;68.80;;;22.02;;
74849;SDS011;63397;47.480;19.238;2022-11-14T19:29:40;69.15;;;24.55;;
74849;SDS011;63397;47.480;19.238;2022-11-14T19:33:02;59.15;;;21.65;;
74849;SDS011;63397;47.480;19.238;2022-11-14T19:36:24;65.28;;;24.85;;
74849;SDS011;63397;47.480;19.238;2022-11-14T19:40:06;66.07;;;24.03;;
74849;SDS011;63397;47.480;19.238;2022-11-14T19:43:28;74.38;;;26.40;;
74849;SDS011;63397;47.480;19.238;2022-11-14T19:46:49;71.47;;;25.92;;
74849;SDS011;63397;47.480;19.238;2022-11-14T19:50:10;72.55;;;25.25;;
74849;SDS011;63397;47.480;19.238;2022-11-14T19:53:32;74.95;;;26.20;;
74849;SDS011;63397;47.480;19.238;2022-11-14T19:56:54;71.40;;;24.17;;
74849;SDS011;63397;47.480;19.238;2022-11-14T20:00:14;68.50;;;24.08;;
74849;SDS011;63397;47.480;19.238;2022-11-14T20:03:36;65.63;;;24.27;;
74849;SDS011;63397;47.480;19.238;2022-11-14T20:06:57;62.55;;;24.65;;
74849;SDS011;63397;47.480;19.238;2022-11-14T20:10:21;74.60;;;26.30;;
74849;SDS011;63397;47.480;19.238;2022-11-14T20:13:42;76.53;;;27.93;;
74849;SDS011;63397;47.480;19.238;2022-11-14T20:17:03;74.28;;;27.15;;
74849;SDS011;63397;47.480;19.238;2022-11-14T20:20:24;68.82;;;26.20;;
74849;SDS011;63397;47.480;19.238;2022-11-14T20:23:45;70.90;;;26.52;;
74849;SDS011;63397;47.480;19.238;2022-11-14T20:27:06;79.57;;;27.58;;
74849;SDS011;63397;47.480;19.238;2022-11-14T20:30:27;88.50;;;28.87;;
74849;SDS011;63397;47.480;19.238;2022-11-14T20:33:48;86.45;;;30.48;;
74849;SDS011;63397;47.480;19.238;2022-11-14T20:37:09;83.25;;;30.30;;
74849;SDS011;63397;47.480;19.238;2022-11-14T20:40:32;82.57;;;30.17;;
74849;SDS011;63397;47.480;19.238;2022-11-14T20:43:53;87.07;;;31.90;;
74849;SDS011;63397;47.480;19.238;2022-11-14T20:47:14;75.53;;;26.87;;
74849;SDS011;63397;47.480;19.238;2022-11-14T20:50:37;193.48;;;31.92;;
74849;SDS011;63397;47.480;19.238;2022-11-14T20:53:58;85.78;;;30.30;;
74849;SDS011;63397;47.480;19.238;2022-11-14T20:57:19;97.95;;;32.58;;
74849;SDS011;63397;47.480;19.238;2022-11-14T21:00:39;73.38;;;25.85;;
74849;SDS011;63397;47.480;19.238;2022-11-14T21:04:00;71.30;;;25.27;;
74849;SDS011;63397;47.480;19.238;2022-11-14T21:07:21;177.77;;;26.60;;
74849;SDS011;63397;47.480;19.238;2022-11-14T21:10:43;71.45;;;24.80;;
74849;SDS011;63397;47.480;19.238;2022-11-14T21:14:06;67.97;;;22.58;;
74849;SDS011;63397;47.480;19.238;2022-11-14T21:17:28;84.85;;;24.23;;
74849;SDS011;63397;47.480;19.238;2022-11-14T21:21:10;166.73;;;24.60;;
74849;SDS011;63397;47.480;19.238;2022-11-14T21:24:31;61.33;;;21.58;;
74849;SDS011;63397;47.480;19.238;2022-11-14T21:27:59;106.68;;;21.77;;
74849;SDS011;63397;47.480;19.238;2022-11-14T21:31:26;74.40;;;24.02;;
74849;SDS011;63397;47.480;19.238;2022-11-14T21:34:47;83.30;;;25.13;;
74849;SDS011;63397;47.480;19.238;2022-11-14T21:38:08;82.03;;;23.47;;
74849;SDS011;63397;47.480;19.238;2022-11-14T21:41:30;103.55;;;23.83;;
74849;SDS011;63397;47.480;19.238;2022-11-14T21:44:51;75.55;;;21.80;;
74849;SDS011;63397;47.480;19.238;2022-11-14T21:48:11;83.43;;;24.75;;
74849;SDS011;63397;47.480;19.238;2022-11-14T21:51:32;87.90;;;24.35;;